createdAt,value
2023-04-28T00:00:21.843Z,478.00
2023-04-28T00:01:21.889Z,478.00
2023-04-28T00:02:22.026Z,476.00
2023-04-28T00:03:22.174Z,477.00
2023-04-28T00:04:22.557Z,478.00
2023-04-28T00:05:22.243Z,478.00
2023-04-28T00:06:22.202Z,477.00
2023-04-28T00:07:22.269Z,476.00
2023-04-28T00:08:22.320Z,477.00
2023-04-28T00:09:22.376Z,481.00
2023-04-28T00:10:22.445Z,482.00
2023-04-28T00:11:22.479Z,483.00
2023-04-28T00:12:22.565Z,483.00
2023-04-28T00:13:22.605Z,483.00
2023-04-28T00:14:22.667Z,483.00
2023-04-28T00:15:22.727Z,482.00
2023-04-28T00:16:22.833Z,478.00
2023-04-28T00:17:22.885Z,478.00
2023-04-28T00:18:22.917Z,478.00
2023-04-28T00:19:22.955Z,477.00
2023-04-28T00:20:23.012Z,478.00
2023-04-28T00:21:23.087Z,476.00
2023-04-28T00:22:23.122Z,476.00
2023-04-28T00:23:23.202Z,475.00
2023-04-28T00:24:23.260Z,474.00
2023-04-28T00:25:23.323Z,473.00
2023-04-28T00:26:23.391Z,472.00
2023-04-28T00:27:23.447Z,470.00
2023-04-28T00:28:33.556Z,468.00
2023-04-28T00:29:24.475Z,469.00
2023-04-28T00:30:23.491Z,469.00
2023-04-28T00:31:23.481Z,469.00
2023-04-28T00:32:23.514Z,469.00
2023-04-28T00:33:23.478Z,471.00
2023-04-28T00:34:23.451Z,470.00
2023-04-28T00:35:23.453Z,470.00
2023-04-28T00:36:23.438Z,468.00
2023-04-28T00:37:23.456Z,469.00
2023-04-28T00:38:23.493Z,472.00
2023-04-28T00:39:23.543Z,473.00
2023-04-28T00:40:23.629Z,473.00
2023-04-28T00:41:23.668Z,473.00
2023-04-28T00:42:23.728Z,474.00
2023-04-28T00:43:23.778Z,474.00
2023-04-28T00:44:23.852Z,475.00
2023-04-28T00:45:23.889Z,475.00
2023-04-28T00:46:23.934Z,477.00
2023-04-28T00:47:24.060Z,479.00
2023-04-28T00:48:24.029Z,479.00
2023-04-28T00:49:24.064Z,478.00
2023-04-28T00:50:24.118Z,477.00
2023-04-28T00:51:24.207Z,476.00
2023-04-28T00:52:24.269Z,476.00
2023-04-28T00:53:24.304Z,477.00
2023-04-28T00:54:24.370Z,475.00
2023-04-28T00:55:24.416Z,475.00
2023-04-28T00:56:24.480Z,477.00
2023-04-28T00:57:24.502Z,479.00
2023-04-28T00:58:24.577Z,481.00
2023-04-28T00:59:24.625Z,482.00
2023-04-28T01:00:24.700Z,483.00
2023-04-28T01:01:24.772Z,484.00
2023-04-28T01:02:24.918Z,485.00
2023-04-28T01:03:24.969Z,484.00
2023-04-28T01:04:25.087Z,483.00
2023-04-28T01:05:24.970Z,483.00
2023-04-28T01:06:25.053Z,483.00
2023-04-28T01:07:25.121Z,484.00
2023-04-28T01:08:25.164Z,486.00
2023-04-28T01:09:25.211Z,485.00
2023-04-28T01:10:25.289Z,486.00
2023-04-28T01:11:25.349Z,489.00
2023-04-28T01:12:25.389Z,489.00
2023-04-28T01:13:25.444Z,489.00
2023-04-28T01:14:25.520Z,487.00
2023-04-28T01:15:25.593Z,485.00
2023-04-28T01:16:25.638Z,486.00
2023-04-28T01:17:25.880Z,485.00
2023-04-28T01:18:25.730Z,486.00
2023-04-28T01:19:25.786Z,487.00
2023-04-28T01:20:25.847Z,484.00
2023-04-28T01:21:25.881Z,483.00
2023-04-28T01:22:25.939Z,484.00
2023-04-28T01:23:25.965Z,486.00
2023-04-28T01:24:26.044Z,485.00
2023-04-28T01:25:26.120Z,487.00
2023-04-28T01:26:26.153Z,487.00
2023-04-28T01:27:26.273Z,489.00
2023-04-28T01:28:26.280Z,489.00
2023-04-28T01:29:26.337Z,487.00
2023-04-28T01:30:26.382Z,487.00
2023-04-28T01:31:26.516Z,486.00
2023-04-28T01:32:26.532Z,489.00
2023-04-28T01:33:26.611Z,489.00
2023-04-28T01:34:26.612Z,489.00
2023-04-28T01:35:26.677Z,487.00
2023-04-28T01:36:26.746Z,487.00
2023-04-28T01:37:26.793Z,487.00
2023-04-28T01:38:26.916Z,489.00
2023-04-28T01:39:26.929Z,489.00
2023-04-28T01:40:26.977Z,489.00
2023-04-28T01:41:27.025Z,490.00
2023-04-28T01:42:27.071Z,489.00
2023-04-28T01:43:27.134Z,489.00
2023-04-28T01:44:27.180Z,490.00
2023-04-28T01:45:27.245Z,493.00
2023-04-28T01:46:27.426Z,493.00
2023-04-28T01:47:27.360Z,493.00
2023-04-28T01:48:27.390Z,492.00
2023-04-28T01:49:27.456Z,493.00
2023-04-28T01:50:27.531Z,490.00
2023-04-28T01:51:27.558Z,491.00
2023-04-28T01:52:27.626Z,495.00
2023-04-28T01:53:27.659Z,494.00
2023-04-28T01:54:27.737Z,496.00
2023-04-28T01:55:27.794Z,498.00
2023-04-28T01:56:27.831Z,499.00
2023-04-28T01:57:27.905Z,498.00
2023-04-28T01:58:27.956Z,497.00
2023-04-28T01:59:28.017Z,494.00
2023-04-28T02:00:28.058Z,496.00
2023-04-28T02:01:28.135Z,495.00
2023-04-28T02:02:28.245Z,495.00
2023-04-28T02:03:28.383Z,495.00
2023-04-28T02:04:28.309Z,498.00
2023-04-28T02:05:28.461Z,499.00
2023-04-28T02:06:28.410Z,500.00
2023-04-28T02:07:28.475Z,500.00
2023-04-28T02:08:28.515Z,498.00
2023-04-28T02:09:28.571Z,497.00
2023-04-28T02:10:28.637Z,497.00
2023-04-28T02:11:28.680Z,498.00
2023-04-28T02:12:28.742Z,497.00
2023-04-28T02:13:28.817Z,497.00
2023-04-28T02:14:28.857Z,497.00
2023-04-28T02:15:28.927Z,495.00
2023-04-28T02:16:29.060Z,495.00
2023-04-28T02:17:29.064Z,494.00
2023-04-28T02:18:29.081Z,493.00
2023-04-28T02:19:29.137Z,492.00
2023-04-28T02:20:30.781Z,493.00
2023-04-28T02:21:29.197Z,494.00
2023-04-28T02:22:29.192Z,496.00
2023-04-28T02:23:29.189Z,496.00
2023-04-28T02:24:29.195Z,497.00
2023-04-28T02:25:29.179Z,498.00
2023-04-28T02:26:29.175Z,499.00
2023-04-28T02:27:29.173Z,497.00
2023-04-28T02:28:29.144Z,494.00
2023-04-28T02:29:29.136Z,495.00
2023-04-28T02:30:29.151Z,494.00
2023-04-28T02:31:29.211Z,493.00
2023-04-28T02:32:29.143Z,491.00
2023-04-28T02:33:29.115Z,489.00
2023-04-28T02:34:29.104Z,491.00
2023-04-28T02:35:29.110Z,491.00
2023-04-28T02:36:29.107Z,491.00
2023-04-28T02:37:29.089Z,493.00
2023-04-28T02:38:29.082Z,494.00
2023-04-28T02:39:29.082Z,495.00
2023-04-28T02:40:29.069Z,500.00
2023-04-28T02:41:29.072Z,499.00
2023-04-28T02:42:29.049Z,497.00
2023-04-28T02:43:29.041Z,498.00
2023-04-28T02:44:29.051Z,499.00
2023-04-28T02:45:29.049Z,500.00
2023-04-28T02:46:29.087Z,501.00
2023-04-28T02:47:29.022Z,502.00
2023-04-28T02:48:28.993Z,503.00
2023-04-28T02:49:28.991Z,502.00
2023-04-28T02:50:29.028Z,502.00
2023-04-28T02:51:29.006Z,501.00
2023-04-28T02:52:28.995Z,504.00
2023-04-28T02:53:28.979Z,504.00
2023-04-28T02:54:28.973Z,502.00
2023-04-28T02:55:28.947Z,502.00
2023-04-28T02:56:28.937Z,501.00
2023-04-28T02:57:28.942Z,499.00
2023-04-28T02:58:28.980Z,496.00
2023-04-28T02:59:29.023Z,495.00
2023-04-28T03:00:29.095Z,494.00
2023-04-28T03:01:29.255Z,493.00
2023-04-28T03:02:29.295Z,493.00
2023-04-28T03:03:29.395Z,494.00
2023-04-28T03:04:29.438Z,493.00
2023-04-28T03:05:29.392Z,492.00
2023-04-28T03:06:29.481Z,492.00
2023-04-28T03:07:29.541Z,493.00
2023-04-28T03:08:29.568Z,495.00
2023-04-28T03:09:29.627Z,495.00
2023-04-28T03:10:29.672Z,497.00
2023-04-28T03:11:29.720Z,500.00
2023-04-28T03:12:29.750Z,500.00
2023-04-28T03:13:29.815Z,499.00
2023-04-28T03:14:29.873Z,500.00
2023-04-28T03:15:29.947Z,502.00
2023-04-28T03:16:30.052Z,500.00
2023-04-28T03:17:30.052Z,498.00
2023-04-28T03:18:30.092Z,499.00
2023-04-28T03:19:30.165Z,501.00
2023-04-28T03:20:30.297Z,500.00
2023-04-28T03:21:30.305Z,500.00
2023-04-28T03:22:30.339Z,503.00
2023-04-28T03:23:30.385Z,501.00
2023-04-28T03:24:30.466Z,501.00
2023-04-28T03:25:30.514Z,500.00
2023-04-28T03:26:30.562Z,498.00
2023-04-28T03:27:30.587Z,499.00
2023-04-28T03:28:30.628Z,500.00
2023-04-28T03:29:30.694Z,499.00
2023-04-28T03:30:30.764Z,498.00
2023-04-28T03:31:30.797Z,499.00
2023-04-28T03:32:30.867Z,501.00
2023-04-28T03:33:30.886Z,502.00
2023-04-28T03:34:30.934Z,503.00
2023-04-28T03:35:30.977Z,501.00
2023-04-28T03:36:31.061Z,502.00
2023-04-28T03:37:31.115Z,503.00
2023-04-28T03:38:31.163Z,501.00
2023-04-28T03:39:31.201Z,501.00
2023-04-28T03:40:31.268Z,500.00
2023-04-28T03:41:31.340Z,502.00
2023-04-28T03:42:31.371Z,503.00
2023-04-28T03:43:31.450Z,502.00
2023-04-28T03:44:31.491Z,500.00
2023-04-28T03:45:31.637Z,500.00
2023-04-28T03:46:31.596Z,499.00
2023-04-28T03:47:31.662Z,500.00
2023-04-28T03:48:31.753Z,501.00
2023-04-28T03:49:31.752Z,501.00
2023-04-28T03:50:31.814Z,501.00
2023-04-28T03:51:31.872Z,499.00
2023-04-28T03:52:31.915Z,500.00
2023-04-28T03:53:31.973Z,500.00
2023-04-28T03:54:32.000Z,500.00
2023-04-28T03:55:32.095Z,500.00
2023-04-28T03:56:32.123Z,504.00
2023-04-28T03:57:32.186Z,504.00
2023-04-28T03:58:32.253Z,504.00
2023-04-28T03:59:32.289Z,505.00
2023-04-28T04:00:32.409Z,505.00
2023-04-28T04:01:32.399Z,504.00
2023-04-28T04:02:32.587Z,502.00
2023-04-28T04:03:32.702Z,502.00
2023-04-28T04:04:32.807Z,503.00
2023-04-28T04:05:32.697Z,502.00
2023-04-28T04:06:32.700Z,504.00
2023-04-28T04:07:32.762Z,504.00
2023-04-28T04:08:32.809Z,504.00
2023-04-28T04:09:32.834Z,502.00
2023-04-28T04:10:32.906Z,502.00
2023-04-28T04:11:32.958Z,501.00
2023-04-28T04:12:32.987Z,501.00
2023-04-28T04:13:33.066Z,502.00
2023-04-28T04:14:33.146Z,497.00
2023-04-28T04:15:33.177Z,497.00
2023-04-28T04:16:33.251Z,499.00
2023-04-28T04:17:33.297Z,500.00
2023-04-28T04:18:33.320Z,503.00
2023-04-28T04:19:33.379Z,505.00
2023-04-28T04:20:33.427Z,503.00
2023-04-28T04:21:33.492Z,502.00
2023-04-28T04:22:33.522Z,502.00
2023-04-28T04:23:33.588Z,504.00
2023-04-28T04:24:33.656Z,506.00
2023-04-28T04:25:33.701Z,507.00
2023-04-28T04:26:33.812Z,509.00
2023-04-28T04:27:33.873Z,509.00
2023-04-28T04:28:33.911Z,507.00
2023-04-28T04:29:33.944Z,509.00
2023-04-28T04:30:34.005Z,508.00
2023-04-28T04:31:34.101Z,508.00
2023-04-28T04:32:34.164Z,506.00
2023-04-28T04:33:34.163Z,506.00
2023-04-28T04:34:34.211Z,504.00
2023-04-28T04:35:34.256Z,504.00
2023-04-28T04:36:34.307Z,506.00
2023-04-28T04:37:34.364Z,509.00
2023-04-28T04:38:34.406Z,509.00
2023-04-28T04:39:34.472Z,508.00
2023-04-28T04:40:34.523Z,510.00
2023-04-28T04:41:34.610Z,511.00
2023-04-28T04:42:34.661Z,511.00
2023-04-28T04:43:34.690Z,513.00
2023-04-28T04:44:34.773Z,514.00
2023-04-28T04:45:34.824Z,515.00
2023-04-28T04:46:34.935Z,515.00
2023-04-28T04:47:34.956Z,515.00
2023-04-28T04:48:35.002Z,514.00
2023-04-28T04:49:35.046Z,513.00
2023-04-28T04:50:35.105Z,511.00
2023-04-28T04:51:35.174Z,511.00
2023-04-28T04:52:35.174Z,510.00
2023-04-28T04:53:35.231Z,507.00
2023-04-28T04:54:35.302Z,509.00
2023-04-28T04:55:35.329Z,512.00
2023-04-28T04:56:35.397Z,511.00
2023-04-28T04:57:35.461Z,509.00
2023-04-28T04:58:35.493Z,511.00
2023-04-28T04:59:35.573Z,508.00
2023-04-28T05:00:35.672Z,507.00
2023-04-28T05:01:35.717Z,505.00
2023-04-28T05:02:35.869Z,504.00
2023-04-28T05:03:35.886Z,503.00
2023-04-28T05:04:36.038Z,504.00
2023-04-28T05:05:35.914Z,505.00
2023-04-28T05:06:36.005Z,506.00
2023-04-28T05:07:36.038Z,510.00
2023-04-28T05:08:36.079Z,509.00
2023-04-28T05:09:36.114Z,509.00
2023-04-28T05:10:36.188Z,508.00
2023-04-28T05:11:36.237Z,509.00
2023-04-28T05:12:36.286Z,509.00
2023-04-28T05:13:36.362Z,509.00
2023-04-28T05:14:36.422Z,510.00
2023-04-28T05:15:36.456Z,511.00
2023-04-28T05:16:36.604Z,515.00
2023-04-28T05:17:36.628Z,514.00
2023-04-28T05:18:36.644Z,517.00
2023-04-28T05:19:36.673Z,518.00
2023-04-28T05:20:36.737Z,519.00
2023-04-28T05:21:36.825Z,518.00
2023-04-28T05:22:36.853Z,518.00
2023-04-28T05:23:36.932Z,518.00
2023-04-28T05:24:36.953Z,518.00
2023-04-28T05:25:37.102Z,515.00
2023-04-28T05:26:37.102Z,516.00
2023-04-28T05:27:37.125Z,516.00
2023-04-28T05:28:37.153Z,517.00
2023-04-28T05:29:37.217Z,522.00
2023-04-28T05:30:37.278Z,533.00
2023-04-28T05:31:37.740Z,560.00
2023-04-28T05:32:37.436Z,574.00
2023-04-28T05:33:37.453Z,671.00
2023-04-28T05:34:37.497Z,696.00
2023-04-28T05:35:37.567Z,685.00
2023-04-28T05:36:37.642Z,688.00
2023-04-28T05:37:37.676Z,694.00
2023-04-28T05:38:37.726Z,713.00
2023-04-28T05:39:37.799Z,796.00
2023-04-28T05:40:37.860Z,856.00
2023-04-28T05:41:37.873Z,858.00
2023-04-28T05:42:37.915Z,859.00
2023-04-28T05:43:37.974Z,862.00
2023-04-28T05:44:38.005Z,865.00
2023-04-28T05:45:38.062Z,871.00
2023-04-28T05:46:38.169Z,876.00
2023-04-28T05:47:38.193Z,880.00
2023-04-28T05:48:38.165Z,881.00
2023-04-28T05:49:38.178Z,886.00
2023-04-28T05:50:39.003Z,887.00
2023-04-28T05:51:38.247Z,885.00
2023-04-28T05:52:38.260Z,886.00
2023-04-28T05:53:38.270Z,885.00
2023-04-28T05:54:38.309Z,886.00
2023-04-28T05:55:38.328Z,883.00
2023-04-28T05:56:38.333Z,883.00
2023-04-28T05:57:45.622Z,883.00
2023-04-28T05:58:39.332Z,888.00
2023-04-28T05:59:38.336Z,893.00
2023-04-28T06:00:38.307Z,893.00
2023-04-28T06:01:38.329Z,897.00
2023-04-28T06:02:38.477Z,900.00
2023-04-28T06:03:38.478Z,909.00
2023-04-28T06:04:38.583Z,917.00
2023-04-28T06:05:38.328Z,929.00
2023-04-28T06:06:38.785Z,952.00
2023-04-28T06:07:38.665Z,953.00
2023-04-28T06:08:38.298Z,958.00
2023-04-28T06:09:38.250Z,965.00
2023-04-28T06:10:38.238Z,968.00
2023-04-28T06:11:38.251Z,974.00
2023-04-28T06:12:38.261Z,984.00
2023-04-28T06:13:38.227Z,986.00
2023-04-28T06:14:38.219Z,993.00
2023-04-28T06:15:38.256Z,999.00
2023-04-28T06:16:38.239Z,1015.00
2023-04-28T06:17:38.708Z,1022.00
2023-04-28T06:18:38.224Z,1031.00
2023-04-28T06:19:38.190Z,1038.00
2023-04-28T06:20:38.208Z,1031.00
2023-04-28T06:21:38.226Z,1024.00
2023-04-28T06:22:38.220Z,1017.00
2023-04-28T06:23:38.187Z,1015.00
2023-04-28T06:24:38.144Z,1018.00
2023-04-28T06:25:38.157Z,1017.00
2023-04-28T06:26:38.234Z,1023.00
2023-04-28T06:27:38.164Z,1024.00
2023-04-28T06:28:38.156Z,1023.00
2023-04-28T06:29:38.113Z,1041.00
2023-04-28T06:30:38.138Z,1047.00
2023-04-28T06:31:38.234Z,1044.00
2023-04-28T06:32:38.128Z,898.00
2023-04-28T06:33:38.097Z,878.00
2023-04-28T06:34:38.100Z,828.00
2023-04-28T06:35:38.107Z,907.00
2023-04-28T06:36:38.200Z,903.00
2023-04-28T06:37:38.140Z,904.00
2023-04-28T06:38:38.046Z,913.00
2023-04-28T06:39:38.131Z,906.00
2023-04-28T06:40:38.094Z,892.00
2023-04-28T06:41:38.132Z,898.00
2023-04-28T06:42:38.217Z,880.00
2023-04-28T06:43:38.194Z,881.00
2023-04-28T06:44:38.212Z,720.00
2023-04-28T06:45:38.249Z,753.00
2023-04-28T06:46:38.347Z,848.00
2023-04-28T06:47:38.335Z,842.00
2023-04-28T06:48:38.366Z,857.00
2023-04-28T06:49:38.379Z,883.00
2023-04-28T06:50:38.399Z,904.00
2023-04-28T06:51:38.428Z,919.00
2023-04-28T06:52:39.696Z,987.00
2023-04-28T06:53:38.523Z,998.00
2023-04-28T06:54:38.464Z,1014.00
2023-04-28T06:55:38.485Z,1037.00
2023-04-28T06:56:38.732Z,1050.00
2023-04-28T06:57:38.737Z,1057.00
2023-04-28T06:58:38.535Z,1067.00
2023-04-28T06:59:38.530Z,1074.00
2023-04-28T07:00:38.528Z,1083.00
2023-04-28T07:01:38.558Z,1090.00
2023-04-28T07:02:38.648Z,1096.00
2023-04-28T07:03:38.873Z,1107.00
2023-04-28T07:04:38.581Z,1121.00
2023-04-28T07:05:38.600Z,1125.00
2023-04-28T07:06:38.660Z,1128.00
2023-04-28T07:07:38.731Z,1131.00
2023-04-28T07:08:38.706Z,1135.00
2023-04-28T07:09:39.594Z,1039.00
2023-04-28T07:10:38.824Z,1034.00
2023-04-28T07:11:38.896Z,1049.00
2023-04-28T07:12:38.945Z,1065.00
2023-04-28T07:13:38.964Z,1077.00
2023-04-28T07:14:39.055Z,1091.00
2023-04-28T07:15:39.097Z,1101.00
2023-04-28T07:16:39.183Z,1104.00
2023-04-28T07:17:39.376Z,1108.00
2023-04-28T07:18:39.246Z,1113.00
2023-04-28T07:19:39.266Z,1116.00
2023-04-28T07:20:39.311Z,1119.00
2023-04-28T07:21:39.408Z,1118.00
2023-04-28T07:22:39.453Z,1116.00
2023-04-28T07:23:39.495Z,1114.00
2023-04-28T07:24:39.563Z,1100.00
2023-04-28T07:25:39.611Z,1033.00
2023-04-28T07:26:39.721Z,1085.00
2023-04-28T07:27:39.780Z,991.00
2023-04-28T07:28:39.767Z,1003.00
2023-04-28T07:29:39.819Z,911.00
2023-04-28T07:30:40.105Z,908.00
2023-04-28T07:31:40.000Z,913.00
2023-04-28T07:32:40.027Z,920.00
2023-04-28T07:33:40.072Z,919.00
2023-04-28T07:34:40.053Z,916.00
2023-04-28T07:35:40.082Z,910.00
2023-04-28T07:36:40.111Z,910.00
2023-04-28T07:37:40.773Z,916.00
2023-04-28T07:38:40.151Z,930.00
2023-04-28T07:39:40.115Z,944.00
2023-04-28T07:40:40.147Z,956.00
2023-04-28T07:41:40.232Z,965.00
2023-04-28T07:42:40.230Z,968.00
2023-04-28T07:43:40.226Z,969.00
2023-04-28T07:44:40.288Z,967.00
2023-04-28T07:45:40.324Z,966.00
2023-04-28T07:46:40.308Z,964.00
2023-04-28T07:47:40.433Z,966.00
2023-04-28T07:48:40.722Z,969.00
2023-04-28T07:49:40.406Z,971.00
2023-04-28T07:50:40.387Z,970.00
2023-04-28T07:51:40.459Z,968.00
2023-04-28T07:52:40.718Z,969.00
2023-04-28T07:53:40.791Z,972.00
2023-04-28T07:54:40.561Z,980.00
2023-04-28T07:55:40.593Z,987.00
2023-04-28T07:56:40.658Z,994.00
2023-04-28T07:57:40.710Z,995.00
2023-04-28T07:58:41.726Z,1001.00
2023-04-28T07:59:40.808Z,1006.00
2023-04-28T08:00:41.297Z,1005.00
2023-04-28T08:01:40.898Z,1002.00
2023-04-28T08:02:41.184Z,1002.00
2023-04-28T08:03:41.165Z,1004.00
2023-04-28T08:04:41.121Z,1004.00
2023-04-28T08:05:41.105Z,1004.00
2023-04-28T08:06:41.143Z,1001.00
2023-04-28T08:07:41.245Z,999.00
2023-04-28T08:08:41.277Z,1000.00
2023-04-28T08:09:41.822Z,1003.00
2023-04-28T08:10:41.334Z,1004.00
2023-04-28T08:11:41.342Z,1007.00
2023-04-28T08:12:41.402Z,1007.00
2023-04-28T08:13:41.730Z,1008.00
2023-04-28T08:14:41.461Z,1005.00
2023-04-28T08:15:41.553Z,1006.00
2023-04-28T08:16:41.598Z,1007.00
2023-04-28T08:17:41.645Z,1005.00
2023-04-28T08:18:41.858Z,1008.00
2023-04-28T08:19:41.690Z,1008.00
2023-04-28T08:20:41.742Z,1006.00
2023-04-28T08:21:41.778Z,999.00
2023-04-28T08:22:41.790Z,993.00
2023-04-28T08:23:42.267Z,981.00
2023-04-28T08:24:41.798Z,992.00
2023-04-28T08:25:41.805Z,1000.00
2023-04-28T08:26:41.845Z,1003.00
2023-04-28T08:27:41.839Z,1005.00
2023-04-28T08:28:41.854Z,1006.00
2023-04-28T08:29:41.880Z,1011.00
2023-04-28T08:30:41.933Z,1023.00
2023-04-28T08:31:42.023Z,1079.00
2023-04-28T08:32:42.069Z,1079.00
2023-04-28T08:33:42.237Z,1084.00
2023-04-28T08:34:42.169Z,1082.00
2023-04-28T08:35:42.168Z,1072.00
2023-04-28T08:36:42.230Z,1050.00
2023-04-28T08:37:42.364Z,1028.00
2023-04-28T08:38:42.339Z,1037.00
2023-04-28T08:39:42.388Z,1044.00
2023-04-28T08:40:42.416Z,1052.00
2023-04-28T08:41:42.496Z,1046.00
2023-04-28T08:42:42.591Z,1053.00
2023-04-28T08:43:42.610Z,1066.00
2023-04-28T08:44:42.679Z,1082.00
2023-04-28T08:45:42.725Z,1094.00
2023-04-28T08:46:42.831Z,1104.00
2023-04-28T08:47:42.848Z,1114.00
2023-04-28T08:48:42.882Z,1166.00
2023-04-28T08:49:42.901Z,1182.00
2023-04-28T08:50:42.962Z,1191.00
2023-04-28T08:51:43.009Z,1203.00
2023-04-28T08:52:43.052Z,1212.00
2023-04-28T08:54:11.754Z,1219.00
2023-04-28T08:54:44.087Z,1212.00
2023-04-28T08:55:43.109Z,1198.00
2023-04-28T08:56:43.074Z,1198.00
2023-04-28T08:57:43.068Z,1196.00
2023-04-28T08:58:43.057Z,814.00
2023-04-28T08:59:43.039Z,782.00
2023-04-28T09:00:43.030Z,702.00
2023-04-28T09:01:43.088Z,678.00
2023-04-28T09:02:43.245Z,664.00
2023-04-28T09:03:43.181Z,651.00
2023-04-28T09:04:43.214Z,642.00
2023-04-28T09:05:43.128Z,634.00
2023-04-28T09:06:43.041Z,629.00
2023-04-28T09:07:43.078Z,621.00
2023-04-28T09:08:43.156Z,611.00
2023-04-28T09:09:43.201Z,603.00
2023-04-28T09:10:43.268Z,597.00
2023-04-28T09:11:43.218Z,592.00
2023-04-28T09:12:43.747Z,586.00
2023-04-28T09:13:43.300Z,580.00
2023-04-28T09:14:43.304Z,579.00
2023-04-28T09:15:43.298Z,577.00
2023-04-28T09:16:43.369Z,575.00
2023-04-28T09:17:43.348Z,574.00
2023-04-28T09:18:43.316Z,574.00
2023-04-28T09:19:43.544Z,574.00
2023-04-28T09:20:43.389Z,574.00
2023-04-28T09:21:43.427Z,571.00
2023-04-28T09:22:43.466Z,568.00
2023-04-28T09:23:43.433Z,568.00
2023-04-28T09:24:43.478Z,570.00
2023-04-28T09:25:43.512Z,577.00
2023-04-28T09:26:43.529Z,633.00
2023-04-28T09:27:43.548Z,678.00
2023-04-28T09:28:43.791Z,803.00
2023-04-28T09:29:43.657Z,817.00
2023-04-28T09:30:43.637Z,796.00
2023-04-28T09:31:43.644Z,801.00
2023-04-28T09:32:43.764Z,809.00
2023-04-28T09:33:43.684Z,854.00
2023-04-28T09:34:43.747Z,871.00
2023-04-28T09:35:43.804Z,875.00
2023-04-28T09:36:43.810Z,884.00
2023-04-28T09:37:44.272Z,883.00
2023-04-28T09:38:44.287Z,895.00
2023-04-28T09:39:43.922Z,919.00
2023-04-28T09:40:43.957Z,939.00
2023-04-28T09:41:43.972Z,962.00
2023-04-28T09:42:44.012Z,993.00
2023-04-28T09:43:43.993Z,1008.00
2023-04-28T09:44:43.982Z,1024.00
2023-04-28T09:45:44.028Z,1038.00
2023-04-28T09:46:44.057Z,1053.00
2023-04-28T09:47:44.331Z,1063.00
2023-04-28T09:48:44.020Z,1071.00
2023-04-28T09:49:44.013Z,1077.00
2023-04-28T09:50:44.003Z,1081.00
2023-04-28T09:51:44.007Z,1085.00
2023-04-28T09:52:43.993Z,1087.00
2023-04-28T09:53:44.052Z,1082.00
2023-04-28T09:54:44.032Z,1082.00
2023-04-28T09:55:44.077Z,1081.00
2023-04-28T09:56:44.130Z,1079.00
2023-04-28T09:57:44.205Z,1076.00
2023-04-28T09:58:44.279Z,1070.00
2023-04-28T09:59:44.308Z,1066.00
2023-04-28T10:00:44.319Z,1062.00
2023-04-28T10:01:44.456Z,1058.00
2023-04-28T10:02:44.423Z,1052.00
2023-04-28T10:03:44.705Z,1048.00
2023-04-28T10:04:44.651Z,1046.00
2023-04-28T10:05:44.584Z,1046.00
2023-04-28T10:06:44.616Z,1048.00
2023-04-28T10:07:44.657Z,1046.00
2023-04-28T10:08:44.742Z,1044.00
2023-04-28T10:09:44.783Z,1043.00
2023-04-28T10:10:44.818Z,1048.00
2023-04-28T10:11:44.894Z,1054.00
2023-04-28T10:12:44.975Z,1059.00
2023-04-28T10:13:45.000Z,1058.00
2023-04-28T10:14:45.257Z,1059.00
2023-04-28T10:15:45.558Z,1057.00
2023-04-28T10:16:45.191Z,1059.00
2023-04-28T10:17:45.311Z,1059.00
2023-04-28T10:18:45.260Z,1063.00
2023-04-28T10:19:45.344Z,1011.00
2023-04-28T10:20:45.393Z,1031.00
2023-04-28T10:21:46.556Z,1006.00
2023-04-28T10:22:45.519Z,1031.00
2023-04-28T10:23:45.787Z,1043.00
2023-04-28T10:24:45.650Z,1041.00
2023-04-28T10:25:45.685Z,1032.00
2023-04-28T10:26:45.748Z,1020.00
2023-04-28T10:27:45.822Z,1004.00
2023-04-28T10:28:45.911Z,990.00
2023-04-28T10:29:45.895Z,974.00
2023-04-28T10:30:45.971Z,966.00
2023-04-28T10:31:46.072Z,890.00
2023-04-28T10:32:46.056Z,893.00
2023-04-28T10:33:46.110Z,896.00
2023-04-28T10:34:46.143Z,882.00
2023-04-28T10:35:46.213Z,862.00
2023-04-28T10:36:46.211Z,843.00
2023-04-28T10:37:46.261Z,828.00
2023-04-28T10:38:46.301Z,818.00
2023-04-28T10:39:46.317Z,802.00
2023-04-28T10:40:46.341Z,794.00
2023-04-28T10:41:46.365Z,797.00
2023-04-28T10:42:46.377Z,795.00
2023-04-28T10:43:46.382Z,795.00
2023-04-28T10:44:46.421Z,790.00
2023-04-28T10:45:46.426Z,788.00
2023-04-28T10:46:46.470Z,778.00
2023-04-28T10:47:46.493Z,707.00
2023-04-28T10:48:46.450Z,715.00
2023-04-28T10:49:46.456Z,719.00
2023-04-28T10:50:46.464Z,717.00
2023-04-28T10:51:46.473Z,713.00
2023-04-28T10:52:46.491Z,709.00
2023-04-28T10:53:47.363Z,702.00
2023-04-28T10:54:46.528Z,698.00
2023-04-28T10:55:46.526Z,698.00
2023-04-28T10:56:46.533Z,692.00
2023-04-28T10:57:46.539Z,691.00
2023-04-28T10:58:46.590Z,691.00
2023-04-28T10:59:46.540Z,682.00
2023-04-28T11:00:46.607Z,678.00
2023-04-28T11:01:46.639Z,677.00
2023-04-28T11:02:46.659Z,673.00
2023-04-28T11:03:46.686Z,667.00
2023-04-28T11:04:46.670Z,656.00
2023-04-28T11:05:46.541Z,646.00
2023-04-28T11:06:46.554Z,637.00
2023-04-28T11:07:46.559Z,633.00
2023-04-28T11:08:46.827Z,633.00
2023-04-28T11:09:46.592Z,631.00
2023-04-28T11:10:46.603Z,631.00
2023-04-28T11:11:46.593Z,628.00
2023-04-28T11:12:47.350Z,625.00
2023-04-28T11:13:46.824Z,625.00
2023-04-28T11:14:46.568Z,633.00
2023-04-28T11:15:46.579Z,638.00
2023-04-28T11:16:46.603Z,640.00
2023-04-28T11:17:46.614Z,642.00
2023-04-28T11:18:46.843Z,643.00
2023-04-28T11:19:46.563Z,643.00
2023-04-28T11:20:46.548Z,638.00
2023-04-28T11:21:46.581Z,637.00
2023-04-28T11:22:46.575Z,635.00
2023-04-28T11:23:46.831Z,631.00
2023-04-28T11:24:46.598Z,629.00
2023-04-28T11:25:46.566Z,629.00
2023-04-28T11:26:46.576Z,631.00
2023-04-28T11:27:46.583Z,635.00
2023-04-28T11:28:46.600Z,635.00
2023-04-28T11:29:46.580Z,633.00
2023-04-28T11:30:46.590Z,632.00
2023-04-28T11:31:46.674Z,633.00
2023-04-28T11:32:46.625Z,633.00
2023-04-28T11:33:46.572Z,633.00
2023-04-28T11:34:46.568Z,635.00
2023-04-28T11:35:46.577Z,631.00
2023-04-28T11:36:46.596Z,632.00
2023-04-28T11:37:46.606Z,636.00
2023-04-28T11:38:46.588Z,636.00
2023-04-28T11:39:46.607Z,633.00
2023-04-28T11:40:46.627Z,633.00
2023-04-28T11:41:46.610Z,633.00
2023-04-28T11:42:46.618Z,631.00
2023-04-28T11:43:47.577Z,630.00
2023-04-28T11:44:46.643Z,637.00
2023-04-28T11:45:46.679Z,646.00
2023-04-28T11:46:46.638Z,649.00
2023-04-28T11:47:46.695Z,645.00
2023-04-28T11:48:46.627Z,643.00
2023-04-28T11:49:46.663Z,640.00
2023-04-28T11:50:46.660Z,640.00
2023-04-28T11:51:46.665Z,637.00
2023-04-28T11:52:46.699Z,638.00
2023-04-28T11:53:46.681Z,638.00
2023-04-28T11:54:46.673Z,636.00
2023-04-28T11:55:46.653Z,635.00
2023-04-28T11:56:46.665Z,633.00
2023-04-28T11:57:46.681Z,633.00
2023-04-28T11:58:46.672Z,632.00
2023-04-28T11:59:46.917Z,632.00
2023-04-28T12:00:46.679Z,633.00
2023-04-28T12:01:46.677Z,627.00
2023-04-28T12:02:46.783Z,623.00
2023-04-28T12:03:46.803Z,620.00
2023-04-28T12:04:46.678Z,618.00
2023-04-28T12:05:46.714Z,614.00
2023-04-28T12:06:46.691Z,614.00
2023-04-28T12:07:46.791Z,612.00
2023-04-28T12:08:46.692Z,610.00
2023-04-28T12:09:46.691Z,606.00
2023-04-28T12:10:46.668Z,600.00
2023-04-28T12:11:46.694Z,598.00
2023-04-28T12:13:46.738Z,599.00
2023-04-28T12:14:46.672Z,596.00
2023-04-28T12:15:46.671Z,596.00
2023-04-28T12:16:46.656Z,597.00
2023-04-28T12:17:46.703Z,595.00
2023-04-28T12:18:46.662Z,594.00
2023-04-28T12:19:46.664Z,593.00
2023-04-28T12:20:46.646Z,591.00
2023-04-28T12:21:46.669Z,593.00
2023-04-28T12:22:46.648Z,592.00
2023-04-28T12:23:46.599Z,592.00
2023-04-28T12:24:46.615Z,590.00